This is the latest recevied weather packets stored in our database for station/object IZ1HMT-3. If no packets are shown the sender has not sent any weather packets the latest 10 day(s).
| Time | Temp. | Humidity | Pressure | Rain* | Wind** | Luminosity | Snow |
|---|---|---|---|---|---|---|---|
| 1787441523 | 23.89° C | 63% | 1016.8 hPa | - | - | - | - |
| 1787440919 | 23.89° C | 62% | 1016.7 hPa | - | - | - | - |
| 1787440316 | 23.89° C | 62% | 1016.7 hPa | - | - | - | - |
| 1787439108 | 23.89° C | 62% | 1016.7 hPa | - | - | - | - |
| 1787438505 | 23.89° C | 63% | 1016.7 hPa | - | - | - | - |
| 1787437901 | 23.89° C | 63% | 1016.7 hPa | - | - | - | - |
| 1787436693 | 23.89° C | 63% | 1016.8 hPa | - | - | - | - |
| 1787436089 | 23.89° C | 62% | 1016.7 hPa | - | - | - | - |
| 1787435487 | 24.44° C | 62% | 1016.8 hPa | - | - | - | - |
| 1787433071 | 25° C | 60% | 1016.6 hPa | - | - | - | - |
| 1787432468 | 25° C | 60% | 1016.5 hPa | - | - | - | - |
| 1787431864 | 25° C | 60% | 1016.5 hPa | - | - | - | - |
| 1787431261 | 25° C | 60% | 1016.5 hPa | - | - | - | - |
| 1787430053 | 25° C | 60% | 1016.4 hPa | - | - | - | - |
| 1787429450 | 25.56° C | 59% | 1016.5 hPa | - | - | - | - |
| 1787425224 | 26.67° C | 55% | 1015.7 hPa | - | - | - | - |
| 1787423412 | 27.78° C | 53% | 1015.3 hPa | - | - | - | - |
| 1787422808 | 27.78° C | 51% | 1015.1 hPa | - | - | - | - |
| 1787421600 | 28.33° C | 50% | 1015 hPa | - | - | - | - |
| 1787420996 | 28.33° C | 49% | 1014.9 hPa | - | - | - | - |
| 1787420391 | 28.89° C | 49% | 1014.7 hPa | - | - | - | - |
| 1787419787 | 28.89° C | 48% | 1014.6 hPa | - | - | - | - |
| 1787419183 | 28.89° C | 47% | 1014.5 hPa | - | - | - | - |
| 1787418579 | 29.44° C | 47% | 1014.4 hPa | - | - | - | - |
| 1787417975 | 29.44° C | 46% | 1014.3 hPa | - | - | - | - |
* Rain since midnight (hover to see other rain measurements)
** Current wind speed in m/s (hover to see current wind gust speed)